Time;durP1;ratioP1;P1;durP2;ratioP2;P2;SDS_P1;SDS_P2;PMS_P1;PMS_P2;Temp;Humidity;BMP_temperature;BMP_pressure;BME280_temperature;BME280_humidity;BME280_pressure;Samples;Min_cycle;Max_cycle;Signal;HPM_P1;HPM_P2
2022/10/13 00:01:21;;;;;;;24.15;6.90;;;;;;;;;;5026487;28;20691;-64
2022/10/13 00:03:47;;;;;;;19.58;6.47;;;;;;;;;;5026900;28;20587;-64
2022/10/13 00:06:17;;;;;;;14.27;6.65;;;;;;;;;;5065099;28;20498;-64
2022/10/13 00:08:43;;;;;;;13.88;6.80;;;;;;;;;;5066115;28;20039;-64
2022/10/13 00:11:12;;;;;;;11.52;6.05;;;;;;;;;;5066727;28;20029;-64
2022/10/13 00:13:37;;;;;;;14.77;6.18;;;;;;;;;;5063379;28;20129;-64
2022/10/13 00:16:03;;;;;;;13.95;6.68;;;;;;;;;;5035995;28;20168;-64
2022/10/13 00:18:28;;;;;;;15.30;6.18;;;;;;;;;;5033080;28;20025;-64
2022/10/13 00:20:53;;;;;;;15.15;6.53;;;;;;;;;;5047041;28;20159;-64
2022/10/13 00:23:19;;;;;;;18.15;6.25;;;;;;;;;;5046225;28;20067;-65
2022/10/13 00:25:46;;;;;;;15.60;6.38;;;;;;;;;;5046463;28;20110;-64
2022/10/13 00:28:12;;;;;;;14.48;6.60;;;;;;;;;;5046410;28;20029;-64
2022/10/13 00:30:38;;;;;;;16.77;7.25;;;;;;;;;;5046227;28;20569;-64
2022/10/13 00:33:04;;;;;;;14.60;6.75;;;;;;;;;;5032577;28;20114;-65
2022/10/13 00:35:29;;;;;;;18.88;6.28;;;;;;;;;;5049768;28;20681;-64
2022/10/13 00:37:55;;;;;;;17.05;6.95;;;;;;;;;;5050261;28;20041;-64
2022/10/13 00:40:20;;;;;;;18.38;7.38;;;;;;;;;;5047531;28;20891;-64
2022/10/13 00:42:45;;;;;;;15.65;6.35;;;;;;;;;;5049601;28;20849;-64
2022/10/13 00:45:21;;;;;;;13.15;6.72;;;;;;;;;;5050497;28;20060;-64
2022/10/13 00:47:51;;;;;;;13.95;6.68;;;;;;;;;;5032258;28;20033;-64
2022/10/13 00:50:21;;;;;;;18.42;7.32;;;;;;;;;;5049184;28;20044;-65
2022/10/13 00:52:48;;;;;;;17.55;6.55;;;;;;;;;;5050037;28;20142;-64
2022/10/13 00:55:17;;;;;;;14.52;6.82;;;;;;;;;;5049263;28;20033;-64
2022/10/13 00:57:44;;;;;;;20.02;7.07;;;;;;;;;;5049686;28;20052;-64
2022/10/13 01:00:10;;;;;;;14.68;6.07;;;;;;;;;;5049975;28;20021;-64
2022/10/13 01:02:37;;;;;;;17.10;6.93;;;;;;;;;;5051771;28;20036;-64
2022/10/13 01:05:05;;;;;;;15.98;6.60;;;;;;;;;;5047192;28;20032;-64
2022/10/13 01:07:30;;;;;;;14.10;6.25;;;;;;;;;;5049654;28;20128;-64
2022/10/13 01:09:59;;;;;;;21.13;6.80;;;;;;;;;;5028539;28;20717;-64
2022/10/13 01:12:46;;;;;;;13.82;6.68;;;;;;;;;;5038806;28;20112;-64
2022/10/13 01:15:16;;;;;;;15.27;6.13;;;;;;;;;;5029466;28;20499;-64
2022/10/13 01:18:17;;;;;;;21.23;7.13;;;;;;;;;;5011967;28;20044;-64
2022/10/13 01:21:04;;;;;;;16.95;7.05;;;;;;;;;;4971601;28;20035;-64
2022/10/13 01:24:01;;;;;;;15.23;6.45;;;;;;;;;;5037967;28;20063;-64
2022/10/13 01:26:51;;;;;;;16.83;6.57;;;;;;;;;;5025240;28;20037;-64
2022/10/13 01:29:39;;;;;;;19.98;7.28;;;;;;;;;;5029129;28;20061;-64
2022/10/13 01:32:33;;;;;;;17.15;7.03;;;;;;;;;;5035245;28;20035;-64
2022/10/13 01:35:04;;;;;;;;;;;;;;;;;;5047341;28;20044;-64
2022/10/13 01:37:32;;;;;;;17.40;6.88;;;;;;;;;;5049030;28;19920;-64
2022/10/13 01:40:04;;;;;;;15.57;6.60;;;;;;;;;;5046439;28;20598;-64
2022/10/13 01:42:41;;;;;;;17.58;7.32;;;;;;;;;;5047583;28;20100;-64
2022/10/13 01:45:10;;;;;;;17.50;7.40;;;;;;;;;;5047642;28;20058;-64
2022/10/13 01:47:37;;;;;;;16.60;6.90;;;;;;;;;;5048891;28;20037;-64
2022/10/13 01:50:04;;;;;;;14.90;7.53;;;;;;;;;;5058382;28;20999;-64
2022/10/13 01:52:34;;;;;;;18.15;8.20;;;;;;;;;;5029958;28;20037;-64
2022/10/13 01:55:06;;;;;;;20.77;7.35;;;;;;;;;;5048770;28;20025;-64
2022/10/13 01:57:35;;;;;;;17.50;7.60;;;;;;;;;;5030356;28;20025;-64
2022/10/13 02:00:07;;;;;;;18.15;7.50;;;;;;;;;;5046730;28;20028;-64
2022/10/13 02:02:57;;;;;;;19.33;7.35;;;;;;;;;;5048554;28;20035;-64
2022/10/13 02:05:40;;;;;;;19.13;8.25;;;;;;;;;;5047944;28;20132;-64
2022/10/13 02:08:14;;;;;;;;;;;;;;;;;;5047382;28;20037;-64
2022/10/13 02:10:48;;;;;;;20.70;7.95;;;;;;;;;;5029836;28;20005;-64
2022/10/13 02:13:16;;;;;;;17.20;7.88;;;;;;;;;;5048084;28;20037;-65
2022/10/13 02:15:47;;;;;;;18.17;7.00;;;;;;;;;;5047500;28;20033;-64
2022/10/13 02:18:15;;;;;;;18.33;7.75;;;;;;;;;;5045812;28;20048;-64
2022/10/13 02:20:43;;;;;;;14.65;6.72;;;;;;;;;;5061336;28;20107;-64
2022/10/13 02:23:12;;;;;;;20.10;7.85;;;;;;;;;;5068253;28;20029;-64
2022/10/13 02:25:38;;;;;;;17.35;7.40;;;;;;;;;;5067510;28;20571;-64
2022/10/13 02:28:04;;;;;;;16.60;7.90;;;;;;;;;;5067544;28;20029;-64
2022/10/13 02:30:32;;;;;;;24.77;8.93;;;;;;;;;;5067675;28;20020;-64
2022/10/13 02:32:57;;;;;;;20.98;8.85;;;;;;;;;;5062392;28;20104;-64
2022/10/13 02:35:23;;;;;;;18.73;8.18;;;;;;;;;;5048024;28;20124;-64
2022/10/13 02:37:48;;;;;;;16.25;7.40;;;;;;;;;;5040973;28;20532;-64
2022/10/13 02:40:13;;;;;;;15.55;7.28;;;;;;;;;;5047602;28;20033;-64
2022/10/13 02:42:39;;;;;;;21.40;7.85;;;;;;;;;;5047365;28;20052;-64
2022/10/13 02:45:05;;;;;;;19.52;8.18;;;;;;;;;;5048221;28;20812;-64
2022/10/13 02:47:30;;;;;;;18.65;7.95;;;;;;;;;;5047235;28;20033;-64
2022/10/13 02:49:56;;;;;;;16.60;8.00;;;;;;;;;;5047629;28;20418;-64
2022/10/13 02:52:21;;;;;;;17.35;8.13;;;;;;;;;;5047154;28;20048;-65
2022/10/13 02:54:46;;;;;;;19.48;8.32;;;;;;;;;;5047739;28;20029;-64
2022/10/13 02:57:11;;;;;;;15.15;7.57;;;;;;;;;;5047168;28;20078;-64
2022/10/13 02:59:37;;;;;;;16.98;6.78;;;;;;;;;;5047231;28;20037;-64
2022/10/13 03:02:02;;;;;;;17.25;8.20;;;;;;;;;;5047059;28;20119;-64
2022/10/13 03:04:28;;;;;;;15.98;7.70;;;;;;;;;;5047302;28;20033;-64
2022/10/13 03:06:53;;;;;;;22.83;8.60;;;;;;;;;;5046720;28;20033;-64
2022/10/13 03:09:18;;;;;;;21.38;7.93;;;;;;;;;;5047883;28;20559;-64
2022/10/13 03:11:43;;;;;;;17.80;7.68;;;;;;;;;;5047032;28;20078;-64
2022/10/13 03:14:09;;;;;;;18.48;7.45;;;;;;;;;;5047234;28;20522;-64
2022/10/13 03:16:34;;;;;;;18.50;7.57;;;;;;;;;;5046675;28;20041;-64
2022/10/13 03:18:59;;;;;;;18.08;8.07;;;;;;;;;;5046772;28;20029;-64
2022/10/13 03:21:25;;;;;;;19.98;8.30;;;;;;;;;;5047325;28;20060;-64
2022/10/13 03:23:50;;;;;;;21.23;8.57;;;;;;;;;;5047574;28;20086;-64
2022/10/13 03:26:16;;;;;;;25.42;8.85;;;;;;;;;;5028179;28;20120;-64
2022/10/13 03:28:41;;;;;;;20.15;8.77;;;;;;;;;;5029211;28;20025;-64
2022/10/13 03:31:08;;;;;;;17.85;8.60;;;;;;;;;;5046917;28;20036;-64
2022/10/13 03:33:34;;;;;;;19.55;8.00;;;;;;;;;;5027035;28;20074;-64
2022/10/13 03:36:01;;;;;;;22.45;8.38;;;;;;;;;;5047648;28;20024;-64
2022/10/13 03:38:27;;;;;;;16.65;8.10;;;;;;;;;;5046503;28;20060;-64
2022/10/13 03:40:53;;;;;;;22.10;8.65;;;;;;;;;;5008826;28;20584;-65
2022/10/13 03:43:18;;;;;;;16.80;7.88;;;;;;;;;;5026623;28;20026;-64
2022/10/13 03:45:43;;;;;;;20.67;8.23;;;;;;;;;;5026893;28;20657;-65
2022/10/13 03:48:09;;;;;;;22.52;8.75;;;;;;;;;;5027180;28;20037;-64
2022/10/13 03:50:36;;;;;;;21.60;8.48;;;;;;;;;;5035168;28;20137;-64
2022/10/13 03:53:01;;;;;;;17.00;7.35;;;;;;;;;;5026614;28;20519;-64
2022/10/13 03:55:26;;;;;;;18.42;8.13;;;;;;;;;;5026281;28;20026;-64
2022/10/13 03:57:51;;;;;;;23.63;8.77;;;;;;;;;;5026616;28;20080;-64
2022/10/13 04:00:17;;;;;;;19.67;7.82;;;;;;;;;;5026661;28;20077;-65
2022/10/13 04:02:42;;;;;;;24.33;9.00;;;;;;;;;;5009028;28;20671;-64
2022/10/13 04:05:08;;;;;;;20.45;8.13;;;;;;;;;;5026214;28;20038;-64
2022/10/13 04:07:33;;;;;;;20.50;7.93;;;;;;;;;;5026583;28;20041;-64
2022/10/13 04:09:58;;;;;;;28.40;9.30;;;;;;;;;;5030211;28;20040;-64
2022/10/13 04:12:24;;;;;;;14.95;7.55;;;;;;;;;;5041737;28;20690;-64
2022/10/13 04:14:49;;;;;;;20.95;8.40;;;;;;;;;;5050877;28;20017;-64
2022/10/13 04:17:14;;;;;;;19.15;8.65;;;;;;;;;;5032236;28;20051;-64
2022/10/13 04:19:40;;;;;;;18.42;8.93;;;;;;;;;;5049454;28;20087;-64
2022/10/13 04:22:05;;;;;;;20.63;8.57;;;;;;;;;;5054519;28;20033;-64
2022/10/13 04:24:30;;;;;;;19.38;7.80;;;;;;;;;;5070003;28;20112;-65
2022/10/13 04:26:56;;;;;;;21.10;7.95;;;;;;;;;;5070384;28;20402;-64
2022/10/13 04:29:22;;;;;;;17.27;8.60;;;;;;;;;;5070107;28;20108;-64
2022/10/13 04:31:47;;;;;;;20.75;8.55;;;;;;;;;;5070047;28;20540;-64
2022/10/13 04:34:13;;;;;;;20.60;8.38;;;;;;;;;;5054802;28;20048;-64
2022/10/13 04:36:38;;;;;;;21.40;8.55;;;;;;;;;;5048604;28;20045;-64
2022/10/13 04:39:04;;;;;;;21.77;8.38;;;;;;;;;;5050279;28;20056;-64
2022/10/13 04:41:29;;;;;;;18.75;8.52;;;;;;;;;;5049473;28;20120;-64
2022/10/13 04:43:54;;;;;;;21.38;8.43;;;;;;;;;;5049621;28;20045;-64
2022/10/13 04:46:23;;;;;;;20.80;7.45;;;;;;;;;;5050277;28;20078;-64
2022/10/13 04:48:49;;;;;;;16.52;7.15;;;;;;;;;;5035497;28;20028;-64
2022/10/13 04:51:18;;;;;;;19.35;8.18;;;;;;;;;;5049889;28;20021;-64
2022/10/13 04:53:43;;;;;;;20.48;7.47;;;;;;;;;;5050085;28;20041;-64
2022/10/13 04:56:11;;;;;;;19.83;7.78;;;;;;;;;;5060229;28;20033;-64
2022/10/13 04:58:38;;;;;;;17.90;7.45;;;;;;;;;;5069530;28;20033;-64
2022/10/13 05:01:05;;;;;;;18.83;8.05;;;;;;;;;;5069780;28;20654;-64
2022/10/13 05:03:31;;;;;;;20.25;7.30;;;;;;;;;;5068335;28;20020;-65
2022/10/13 05:05:56;;;;;;;22.35;8.45;;;;;;;;;;5069991;28;20439;-64
2022/10/13 05:08:21;;;;;;;16.50;7.32;;;;;;;;;;5069684;28;20450;-64
2022/10/13 05:10:58;;;;;;;20.73;8.32;;;;;;;;;;5069156;28;20056;-64
2022/10/13 05:13:25;;;;;;;16.95;7.90;;;;;;;;;;5069002;28;20032;-64
2022/10/13 05:15:50;;;;;;;21.00;7.63;;;;;;;;;;5051794;28;20120;-64
2022/10/13 05:18:16;;;;;;;18.27;7.85;;;;;;;;;;5054450;28;20104;-65
2022/10/13 05:20:41;;;;;;;17.90;7.68;;;;;;;;;;5048884;28;20392;-65
2022/10/13 05:23:07;;;;;;;16.05;7.10;;;;;;;;;;5049351;28;20518;-64
2022/10/13 05:25:36;;;;;;;19.85;8.27;;;;;;;;;;5053897;28;20037;-64
2022/10/13 05:28:04;;;;;;;17.90;7.20;;;;;;;;;;5046686;28;20025;-65
2022/10/13 05:30:29;;;;;;;16.52;7.65;;;;;;;;;;5031356;28;20021;-64
2022/10/13 05:32:56;;;;;;;23.17;8.60;;;;;;;;;;5049153;28;20083;-64
2022/10/13 05:35:22;;;;;;;20.80;8.32;;;;;;;;;;5048914;28;20037;-64
2022/10/13 05:37:47;;;;;;;18.85;7.38;;;;;;;;;;5047065;28;20044;-64
2022/10/13 05:40:13;;;;;;;17.15;7.18;;;;;;;;;;5051938;28;20044;-65
2022/10/13 05:42:38;;;;;;;17.05;7.72;;;;;;;;;;5031229;28;20021;-64
2022/10/13 05:45:04;;;;;;;17.60;7.50;;;;;;;;;;5048919;28;20025;-64
2022/10/13 05:47:30;;;;;;;20.27;8.20;;;;;;;;;;5048212;28;20447;-64
2022/10/13 05:49:55;;;;;;;18.65;8.18;;;;;;;;;;5031003;28;20071;-65
2022/10/13 05:52:23;;;;;;;17.35;7.68;;;;;;;;;;5047417;28;20029;-64
2022/10/13 05:54:53;;;;;;;20.67;8.05;;;;;;;;;;5048042;28;20029;-64
2022/10/13 05:57:23;;;;;;;17.42;7.63;;;;;;;;;;5064872;28;20025;-65
2022/10/13 05:59:54;;;;;;;22.70;8.35;;;;;;;;;;5050196;28;20033;-65
2022/10/13 06:02:23;;;;;;;18.35;7.80;;;;;;;;;;5068107;28;20033;-64
2022/10/13 06:04:52;;;;;;;18.45;8.15;;;;;;;;;;5068306;28;20052;-64
2022/10/13 06:07:17;;;;;;;17.92;7.40;;;;;;;;;;5068309;28;20029;-65
2022/10/13 06:09:43;;;;;;;18.40;8.25;;;;;;;;;;5062536;28;20083;-65
2022/10/13 06:12:09;;;;;;;16.52;8.43;;;;;;;;;;5048087;28;20017;-65
2022/10/13 06:14:35;;;;;;;20.75;7.65;;;;;;;;;;5047427;28;20040;-64
2022/10/13 06:17:00;;;;;;;17.40;7.93;;;;;;;;;;5054192;28;20028;-65
2022/10/13 06:19:25;;;;;;;17.67;7.55;;;;;;;;;;5055050;28;20148;-64
2022/10/13 06:21:51;;;;;;;22.20;8.85;;;;;;;;;;5031615;28;20116;-64
2022/10/13 06:24:16;;;;;;;17.45;7.57;;;;;;;;;;5033338;28;20067;-64
2022/10/13 06:26:41;;;;;;;15.30;7.47;;;;;;;;;;5048974;28;20033;-64
2022/10/13 06:29:07;;;;;;;17.90;7.50;;;;;;;;;;5051370;28;20063;-65
2022/10/13 06:31:32;;;;;;;18.45;8.30;;;;;;;;;;5047077;28;20536;-64
2022/10/13 06:33:59;;;;;;;20.38;7.80;;;;;;;;;;5043432;28;20029;-65
2022/10/13 06:36:25;;;;;;;16.67;7.32;;;;;;;;;;5046328;28;20029;-64
2022/10/13 06:38:50;;;;;;;18.70;8.02;;;;;;;;;;5048216;28;20383;-64
2022/10/13 06:41:16;;;;;;;17.60;7.88;;;;;;;;;;5045531;28;20037;-64
2022/10/13 06:43:42;;;;;;;16.23;8.02;;;;;;;;;;5045818;28;20029;-64
2022/10/13 06:46:08;;;;;;;24.80;8.57;;;;;;;;;;5046639;28;20020;-65
2022/10/13 06:48:34;;;;;;;22.27;8.05;;;;;;;;;;5037657;28;20459;-65
2022/10/13 06:51:01;;;;;;;18.23;7.65;;;;;;;;;;5027467;28;20044;-64
2022/10/13 06:53:26;;;;;;;20.27;7.80;;;;;;;;;;5027323;28;20418;-65
2022/10/13 06:55:55;;;;;;;22.38;8.38;;;;;;;;;;5026874;28;20476;-65
2022/10/13 06:58:21;;;;;;;16.65;7.80;;;;;;;;;;5023833;28;20108;-65
2022/10/13 07:00:46;;;;;;;15.52;7.75;;;;;;;;;;5037120;28;20123;-64
2022/10/13 07:03:11;;;;;;;18.85;7.85;;;;;;;;;;5038994;28;20493;-64
2022/10/13 07:05:36;;;;;;;16.90;7.90;;;;;;;;;;5035241;28;20119;-64
2022/10/13 07:08:02;;;;;;;14.88;6.70;;;;;;;;;;5047015;28;20155;-64
2022/10/13 07:10:27;;;;;;;19.13;7.60;;;;;;;;;;5046992;28;20421;-64
2022/10/13 07:12:53;;;;;;;19.25;8.43;;;;;;;;;;5045983;28;20045;-65
2022/10/13 07:15:18;;;;;;;15.73;7.60;;;;;;;;;;5039876;28;20021;-65
2022/10/13 07:17:43;;;;;;;15.18;6.63;;;;;;;;;;5045787;28;20032;-64
2022/10/13 07:20:09;;;;;;;21.85;7.65;;;;;;;;;;5046125;28;20040;-64
2022/10/13 07:22:34;;;;;;;16.25;6.93;;;;;;;;;;5047021;28;20043;-67
2022/10/13 07:25:00;;;;;;;16.55;6.90;;;;;;;;;;5048397;28;20021;-64
2022/10/13 07:27:26;;;;;;;16.67;6.78;;;;;;;;;;5046982;28;20045;-64
2022/10/13 07:29:51;;;;;;;18.70;7.63;;;;;;;;;;5046438;28;20083;-65
2022/10/13 07:32:17;;;;;;;14.00;5.50;;;;;;;;;;5046706;28;20041;-64
2022/10/13 07:34:42;;;;;;;15.18;7.07;;;;;;;;;;5046084;28;20044;-65
2022/10/13 07:37:08;;;;;;;13.65;6.47;;;;;;;;;;5046782;28;20079;-65
2022/10/13 07:39:33;;;;;;;18.15;6.55;;;;;;;;;;5044806;28;20044;-64
2022/10/13 07:41:58;;;;;;;19.52;6.95;;;;;;;;;;5031681;28;20095;-65
2022/10/13 07:44:24;;;;;;;12.88;6.82;;;;;;;;;;5029150;28;20037;-64
2022/10/13 07:46:49;;;;;;;11.27;6.03;;;;;;;;;;5037565;28;20470;-64
2022/10/13 07:49:15;;;;;;;15.20;6.75;;;;;;;;;;5050642;28;20036;-65
2022/10/13 07:51:40;;;;;;;15.63;7.07;;;;;;;;;;5051873;28;20040;-64
2022/10/13 07:54:06;;;;;;;14.95;5.90;;;;;;;;;;5032953;28;20569;-64
2022/10/13 07:56:31;;;;;;;15.57;6.32;;;;;;;;;;5050685;28;20596;-65
2022/10/13 07:58:57;;;;;;;16.33;6.97;;;;;;;;;;5029829;28;20041;-64
2022/10/13 08:01:23;;;;;;;21.45;6.65;;;;;;;;;;5050773;28;20040;-65
2022/10/13 08:03:48;;;;;;;14.25;6.45;;;;;;;;;;5051705;28;20104;-65
2022/10/13 08:06:13;;;;;;;18.45;6.75;;;;;;;;;;5041026;28;20052;-64
2022/10/13 08:08:39;;;;;;;14.38;6.60;;;;;;;;;;5047875;28;20025;-64
2022/10/13 08:11:08;;;;;;;12.93;6.25;;;;;;;;;;5048885;28;20056;-65
2022/10/13 08:13:34;;;;;;;17.70;7.15;;;;;;;;;;5048780;28;20045;-65
2022/10/13 08:16:01;;;;;;;13.52;6.40;;;;;;;;;;5049421;28;20100;-65
2022/10/13 08:18:26;;;;;;;15.60;6.97;;;;;;;;;;5049752;28;20037;-65
2022/10/13 08:20:52;;;;;;;14.55;7.00;;;;;;;;;;5047049;28;20457;-65
2022/10/13 08:23:17;;;;;;;14.77;6.30;;;;;;;;;;5049655;28;20037;-65
2022/10/13 08:25:43;;;;;;;13.70;5.82;;;;;;;;;;5050474;28;20087;-65
2022/10/13 08:28:16;;;;;;;13.35;6.95;;;;;;;;;;5050382;28;20021;-65
2022/10/13 08:30:42;;;;;;;15.23;7.20;;;;;;;;;;5048618;28;20071;-65
2022/10/13 08:33:07;;;;;;;17.58;6.72;;;;;;;;;;5044074;28;20040;-63
2022/10/13 08:35:41;;;;;;;20.35;6.55;;;;;;;;;;5031261;28;20083;-63
2022/10/13 08:38:06;;;;;;;13.13;6.65;;;;;;;;;;5030826;28;20060;-63
2022/10/13 08:40:32;;;;;;;17.08;7.03;;;;;;;;;;5047446;28;20056;-62
2022/10/13 08:42:58;;;;;;;11.77;5.85;;;;;;;;;;5050848;28;20029;-63
2022/10/13 08:45:30;;;;;;;13.77;7.13;;;;;;;;;;5050616;28;20045;-63
2022/10/13 08:48:00;;;;;;;17.10;6.13;;;;;;;;;;5047311;28;20103;-62
2022/10/13 08:50:32;;;;;;;15.20;7.07;;;;;;;;;;5024171;28;20533;-65
2022/10/13 08:53:12;;;;;;;16.13;6.10;;;;;;;;;;5039097;28;20048;-65
2022/10/13 08:55:49;;;;;;;12.38;6.20;;;;;;;;;;5050306;28;20024;-65
2022/10/13 08:58:24;;;;;;;15.32;6.70;;;;;;;;;;5049734;28;20167;-64
2022/10/13 09:01:10;;;;;;;15.35;6.55;;;;;;;;;;5032569;28;20114;-64
2022/10/13 09:04:02;;;;;;;15.52;6.97;;;;;;;;;;5049705;28;20036;-64
2022/10/13 09:06:34;;;;;;;11.25;5.97;;;;;;;;;;5051358;28;20167;-64
2022/10/13 09:09:03;;;;;;;11.38;5.70;;;;;;;;;;5044089;28;20024;-64
2022/10/13 09:11:32;;;;;;;12.20;5.75;;;;;;;;;;5070004;28;20119;-64
2022/10/13 09:14:01;;;;;;;12.68;6.45;;;;;;;;;;5069206;28;20044;-64
2022/10/13 09:16:40;;;;;;;13.82;6.80;;;;;;;;;;5070176;28;20043;-65
2022/10/13 09:19:26;;;;;;;14.38;6.97;;;;;;;;;;5070334;28;20036;-64
2022/10/13 09:22:11;;;;;;;19.23;7.25;;;;;;;;;;5028308;28;20056;-64
2022/10/13 09:24:36;;;;;;;13.40;6.30;;;;;;;;;;5029613;28;20037;-65
2022/10/13 09:27:12;;;;;;;16.90;7.50;;;;;;;;;;5029686;28;20041;-64
2022/10/13 09:29:38;;;;;;;14.82;7.20;;;;;;;;;;5030185;28;20048;-65
2022/10/13 09:32:24;;;;;;;15.57;6.72;;;;;;;;;;5033724;28;20036;-64
2022/10/13 09:34:50;;;;;;;17.50;7.72;;;;;;;;;;5049627;28;20025;-64
2022/10/13 09:37:20;;;;;;;21.10;7.38;;;;;;;;;;5046767;28;20473;-65
2022/10/13 09:39:46;;;;;;;15.65;7.15;;;;;;;;;;5047182;28;20048;-65
2022/10/13 09:42:30;;;;;;;14.25;7.10;;;;;;;;;;5047029;28;20029;-65
2022/10/13 09:44:58;;;;;;;15.43;7.38;;;;;;;;;;5049241;28;20029;-64
2022/10/13 09:47:26;;;;;;;18.33;8.60;;;;;;;;;;5042730;28;20071;-65
2022/10/13 09:50:23;;;;;;;18.33;8.45;;;;;;;;;;5043491;28;20052;-65
2022/10/13 09:52:49;;;;;;;20.58;8.75;;;;;;;;;;5013442;28;20037;-65
2022/10/13 09:55:32;;;;;;;19.30;7.50;;;;;;;;;;5030501;28;20593;-65
2022/10/13 09:58:20;;;;;;;19.00;7.68;;;;;;;;;;5032678;28;20049;-65
2022/10/13 10:00:48;;;;;;;22.70;8.40;;;;;;;;;;5042032;28;20052;-64
2022/10/13 10:03:26;;;;;;;15.55;7.10;;;;;;;;;;5048556;28;20033;-65
2022/10/13 10:06:02;;;;;;;17.98;7.72;;;;;;;;;;5045960;28;20114;-64
2022/10/13 10:08:46;;;;;;;14.75;6.95;;;;;;;;;;5048016;28;20072;-65
2022/10/13 10:11:14;;;;;;;;;;;;;;;;;;5044027;28;20690;-64
2022/10/13 10:13:39;;;;;;;15.20;6.80;;;;;;;;;;5025416;28;19933;-64
2022/10/13 10:16:11;;;;;;;16.73;7.70;;;;;;;;;;5024532;28;20034;-65
2022/10/13 10:18:52;;;;;;;18.25;7.65;;;;;;;;;;5028790;28;20061;-65
2022/10/13 10:21:48;;;;;;;11.50;6.60;;;;;;;;;;5028002;28;20042;-64
2022/10/13 10:24:32;;;;;;;17.65;6.63;;;;;;;;;;5026317;28;20514;-64
2022/10/13 10:27:24;;;;;;;16.20;7.25;;;;;;;;;;5027430;28;20057;-66
2022/10/13 10:30:19;;;;;;;15.82;6.70;;;;;;;;;;5024402;28;20076;-66
2022/10/13 10:32:47;;;;;;;16.33;7.53;;;;;;;;;;5018319;28;20804;-65
2022/10/13 10:35:20;;;;;;;17.88;7.13;;;;;;;;;;5027575;28;20037;-66
2022/10/13 10:38:07;;;;;;;15.93;7.00;;;;;;;;;;5023769;28;20041;-66
2022/10/13 10:40:51;;;;;;;17.63;7.90;;;;;;;;;;5042267;28;20061;-66
2022/10/13 10:43:30;;;;;;;13.65;6.85;;;;;;;;;;5047530;28;20060;-66
2022/10/13 10:45:57;;;;;;;18.90;7.25;;;;;;;;;;5041654;28;20376;-66
2022/10/13 10:48:29;;;;;;;20.67;7.53;;;;;;;;;;5020947;28;20069;-66
2022/10/13 10:50:55;;;;;;;18.13;8.32;;;;;;;;;;5016734;28;20031;-66
2022/10/13 10:53:30;;;;;;;19.77;8.55;;;;;;;;;;5028092;28;20632;-66
2022/10/13 10:55:58;;;;;;;16.60;8.05;;;;;;;;;;5026915;28;20888;-66
2022/10/13 10:58:28;;;;;;;19.70;7.85;;;;;;;;;;5025676;28;20112;-66
2022/10/13 11:01:05;;;;;;;13.88;7.70;;;;;;;;;;5026282;28;20034;-66
2022/10/13 11:03:44;;;;;;;15.68;7.82;;;;;;;;;;5027356;28;20407;-66
2022/10/13 11:06:15;;;;;;;17.45;8.70;;;;;;;;;;5023559;28;20037;-66
2022/10/13 11:08:46;;;;;;;16.45;8.23;;;;;;;;;;5023020;28;20040;-66
2022/10/13 11:11:30;;;;;;;12.25;6.80;;;;;;;;;;5031857;28;20034;-66
2022/10/13 11:14:04;;;;;;;15.57;7.28;;;;;;;;;;5026292;28;20042;-66
2022/10/13 11:16:34;;;;;;;14.75;7.38;;;;;;;;;;5028122;28;20101;-66
2022/10/13 11:19:07;;;;;;;17.35;7.38;;;;;;;;;;5027371;28;20112;-66
2022/10/13 11:21:51;;;;;;;19.25;7.95;;;;;;;;;;5025461;28;20130;-66
2022/10/13 11:24:32;;;;;;;14.77;7.05;;;;;;;;;;5027773;28;20616;-66
2022/10/13 11:27:25;;;;;;;15.98;7.65;;;;;;;;;;5026984;28;20525;-66
2022/10/13 11:29:53;;;;;;;13.17;6.60;;;;;;;;;;5026867;28;20125;-66
2022/10/13 11:35:05;;;;;;;17.60;7.38;;;;;;;;;;5007672;28;20041;-66
2022/10/13 11:38:03;;;;;;;22.83;8.23;;;;;;;;;;5012597;28;20041;-65
2022/10/13 11:40:32;;;;;;;14.00;7.85;;;;;;;;;;5024545;28;20096;-66
2022/10/13 11:43:16;;;;;;;17.65;7.82;;;;;;;;;;5004942;28;20042;-66
2022/10/13 11:46:10;;;;;;;22.05;8.32;;;;;;;;;;5022533;28;20037;-66
2022/10/13 11:49:04;;;;;;;17.85;8.48;;;;;;;;;;5015076;28;20030;-65
2022/10/13 11:51:57;;;;;;;18.40;9.00;;;;;;;;;;5022405;28;20034;-66
2022/10/13 11:54:31;;;;;;;17.40;8.57;;;;;;;;;;5007206;28;20037;-66
2022/10/13 11:56:57;;;;;;;15.75;8.55;;;;;;;;;;5027796;28;20052;-66
2022/10/13 11:59:26;;;;;;;15.88;7.88;;;;;;;;;;5042201;28;20372;-66
2022/10/13 12:01:56;;;;;;;22.60;8.02;;;;;;;;;;5046704;28;20045;-66
2022/10/13 12:04:26;;;;;;;20.15;7.63;;;;;;;;;;5044866;28;20060;-66
2022/10/13 12:07:00;;;;;;;21.40;7.93;;;;;;;;;;5023633;28;20030;-66
2022/10/13 12:09:26;;;;;;;15.18;7.63;;;;;;;;;;5025437;28;20038;-66
2022/10/13 12:12:16;;;;;;;18.95;7.32;;;;;;;;;;5019588;28;20051;-66
2022/10/13 12:14:44;;;;;;;15.95;8.25;;;;;;;;;;5021712;28;20132;-66
2022/10/13 12:17:20;;;;;;;15.68;7.55;;;;;;;;;;5017743;28;20034;-66
2022/10/13 12:19:45;;;;;;;20.88;10.23;;;;;;;;;;5014756;28;20033;-66
2022/10/13 12:22:12;;;;;;;18.50;9.00;;;;;;;;;;5025447;28;20071;-66
2022/10/13 12:24:37;;;;;;;16.48;9.02;;;;;;;;;;5023803;28;20113;-65
2022/10/13 12:27:33;;;;;;;18.88;9.23;;;;;;;;;;5023451;28;20112;-65
2022/10/13 12:29:59;;;;;;;25.65;9.90;;;;;;;;;;5026217;28;20091;-66
2022/10/13 12:32:32;;;;;;;22.75;9.13;;;;;;;;;;5028177;28;20092;-66
2022/10/13 12:35:31;;;;;;;20.00;9.83;;;;;;;;;;5027789;28;20033;-66
2022/10/13 12:38:01;;;;;;;22.95;9.38;;;;;;;;;;5006431;28;20037;-66
2022/10/13 12:40:27;;;;;;;20.30;8.93;;;;;;;;;;5021932;28;20043;-66
2022/10/13 12:42:53;;;;;;;24.10;10.18;;;;;;;;;;5025367;28;20501;-66
2022/10/13 12:45:21;;;;;;;18.67;9.20;;;;;;;;;;5025593;28;20503;-66
2022/10/13 12:47:48;;;;;;;20.70;10.43;;;;;;;;;;5018379;28;20022;-66
2022/10/13 12:50:28;;;;;;;20.77;10.02;;;;;;;;;;5025531;28;20518;-66
2022/10/13 12:53:11;;;;;;;19.50;8.50;;;;;;;;;;5050793;28;20044;-66
2022/10/13 12:55:47;;;;;;;25.97;10.47;;;;;;;;;;5047694;28;20036;-66
2022/10/13 12:58:20;;;;;;;18.73;9.20;;;;;;;;;;5027130;28;20446;-65
2022/10/13 13:01:19;;;;;;;18.17;9.30;;;;;;;;;;5010312;28;20034;-66
2022/10/13 13:03:53;;;;;;;20.08;9.45;;;;;;;;;;5006190;28;20462;-66
2022/10/13 13:06:21;;;;;;;;;;;;;;;;;;5011101;28;20447;-65
2022/10/13 13:09:11;;;;;;;18.58;8.73;;;;;;;;;;5024862;28;19939;-66
2022/10/13 13:11:37;;;;;;;16.38;8.90;;;;;;;;;;5050688;28;20041;-66
2022/10/13 13:14:23;;;;;;;20.23;8.88;;;;;;;;;;5064056;28;20048;-66
2022/10/13 13:17:10;;;;;;;15.55;7.90;;;;;;;;;;5051526;28;20062;-66
2022/10/13 13:19:36;;;;;;;15.55;7.82;;;;;;;;;;5069836;28;20028;-66
2022/10/13 13:22:03;;;;;;;13.90;8.13;;;;;;;;;;5067329;28;20028;-65
2022/10/13 13:24:29;;;;;;;18.05;7.90;;;;;;;;;;5042978;28;20029;-66
2022/10/13 13:26:54;;;;;;;16.58;7.57;;;;;;;;;;5030325;28;20041;-65
2022/10/13 13:29:19;;;;;;;18.80;7.47;;;;;;;;;;5030467;28;20025;-66
2022/10/13 13:31:45;;;;;;;14.95;7.35;;;;;;;;;;5041228;28;20528;-65
2022/10/13 13:34:10;;;;;;;15.20;7.43;;;;;;;;;;5048687;28;20510;-66
2022/10/13 13:36:35;;;;;;;16.83;7.18;;;;;;;;;;5049606;28;20040;-66
2022/10/13 13:39:00;;;;;;;14.18;6.55;;;;;;;;;;5048063;28;20115;-66
2022/10/13 13:41:29;;;;;;;13.40;7.28;;;;;;;;;;5048541;28;20021;-65
2022/10/13 13:43:55;;;;;;;15.65;7.15;;;;;;;;;;5029253;28;20434;-66
2022/10/13 13:46:23;;;;;;;14.88;7.28;;;;;;;;;;5043358;28;20533;-66
2022/10/13 13:48:49;;;;;;;14.05;7.00;;;;;;;;;;5047779;28;20048;-66
2022/10/13 13:51:15;;;;;;;12.93;6.47;;;;;;;;;;5048205;28;20415;-66
2022/10/13 13:53:41;;;;;;;16.58;6.80;;;;;;;;;;5047510;28;20413;-66
2022/10/13 13:56:14;;;;;;;13.07;6.45;;;;;;;;;;5053990;28;20056;-66
2022/10/13 13:58:39;;;;;;;16.23;6.57;;;;;;;;;;5064637;28;20098;-66
2022/10/13 14:01:04;;;;;;;15.20;5.90;;;;;;;;;;5068803;28;20059;-66
2022/10/13 14:03:30;;;;;;;13.45;6.90;;;;;;;;;;5068921;28;20090;-66
2022/10/13 14:05:55;;;;;;;12.18;6.18;;;;;;;;;;5047709;28;20187;-66
2022/10/13 14:08:20;;;;;;;9.15;5.80;;;;;;;;;;5069079;28;21076;-66
2022/10/13 14:10:45;;;;;;;11.13;5.63;;;;;;;;;;5066880;28;20394;-66
2022/10/13 14:13:11;;;;;;;11.82;5.63;;;;;;;;;;5068305;28;20127;-66
2022/10/13 14:15:36;;;;;;;10.25;5.93;;;;;;;;;;5067715;28;20037;-66
2022/10/13 14:18:01;;;;;;;12.98;5.97;;;;;;;;;;5068001;28;20078;-65
2022/10/13 14:20:27;;;;;;;12.18;5.93;;;;;;;;;;5050028;28;20034;-66
2022/10/13 14:22:52;;;;;;;15.32;5.72;;;;;;;;;;5061897;28;20049;-66
2022/10/13 14:25:18;;;;;;;12.35;5.82;;;;;;;;;;5048371;28;20043;-65
2022/10/13 14:27:44;;;;;;;11.90;5.55;;;;;;;;;;5030247;28;20052;-66
2022/10/13 14:30:10;;;;;;;11.48;6.15;;;;;;;;;;5047686;28;20009;-66
2022/10/13 14:32:36;;;;;;;11.02;5.93;;;;;;;;;;5031418;28;20054;-66
2022/10/13 14:35:02;;;;;;;12.00;5.20;;;;;;;;;;5026804;28;20057;-66
2022/10/13 14:37:28;;;;;;;11.93;5.70;;;;;;;;;;5028482;28;20033;-66
2022/10/13 14:39:53;;;;;;;13.05;6.10;;;;;;;;;;5021236;28;20099;-66
2022/10/13 14:42:18;;;;;;;13.27;5.72;;;;;;;;;;5047578;28;20103;-66
2022/10/13 14:44:44;;;;;;;12.45;5.88;;;;;;;;;;5049078;28;20391;-66
2022/10/13 14:47:09;;;;;;;12.98;6.15;;;;;;;;;;5040158;28;20117;-66
2022/10/13 14:49:34;;;;;;;13.00;6.68;;;;;;;;;;5028465;28;20099;-66